sensor_id;sensor_type;location;lat;lon;timestamp;temperature;humidity
5940;DHT22;2995;-31.998;115.906;2024-01-11T00:00:27;26.90;99.90
5940;DHT22;2995;-31.998;115.906;2024-01-11T00:03:01;26.70;99.90
5940;DHT22;2995;-31.998;115.906;2024-01-11T00:05:33;26.90;99.90
5940;DHT22;2995;-31.998;115.906;2024-01-11T00:08:04;27.10;99.90
5940;DHT22;2995;-31.998;115.906;2024-01-11T00:10:35;27.40;99.90
5940;DHT22;2995;-31.998;115.906;2024-01-11T00:13:07;27.40;99.90
5940;DHT22;2995;-31.998;115.906;2024-01-11T00:15:38;27.60;99.90
5940;DHT22;2995;-31.998;115.906;2024-01-11T00:18:11;27.60;99.90
5940;DHT22;2995;-31.998;115.906;2024-01-11T00:20:42;27.90;99.90
5940;DHT22;2995;-31.998;115.906;2024-01-11T00:23:14;28.30;99.90
5940;DHT22;2995;-31.998;115.906;2024-01-11T00:25:45;28.10;99.90
5940;DHT22;2995;-31.998;115.906;2024-01-11T00:28:16;28.20;99.90
5940;DHT22;2995;-31.998;115.906;2024-01-11T00:30:47;28.30;99.90
5940;DHT22;2995;-31.998;115.906;2024-01-11T00:33:21;28.40;99.90
5940;DHT22;2995;-31.998;115.906;2024-01-11T00:35:52;28.60;99.90
5940;DHT22;2995;-31.998;115.906;2024-01-11T00:38:23;28.80;99.90
5940;DHT22;2995;-31.998;115.906;2024-01-11T00:40:54;28.80;99.90
5940;DHT22;2995;-31.998;115.906;2024-01-11T00:43:26;28.80;99.90
5940;DHT22;2995;-31.998;115.906;2024-01-11T00:45:57;28.80;99.90
5940;DHT22;2995;-31.998;115.906;2024-01-11T00:48:30;28.70;99.90
5940;DHT22;2995;-31.998;115.906;2024-01-11T00:51:04;28.90;99.90
5940;DHT22;2995;-31.998;115.906;2024-01-11T00:53:35;29.10;99.90
5940;DHT22;2995;-31.998;115.906;2024-01-11T00:56:14;29.20;99.90
5940;DHT22;2995;-31.998;115.906;2024-01-11T00:58:45;29.20;99.90
5940;DHT22;2995;-31.998;115.906;2024-01-11T01:01:16;29.10;99.90
5940;DHT22;2995;-31.998;115.906;2024-01-11T01:03:50;29.10;99.90
5940;DHT22;2995;-31.998;115.906;2024-01-11T01:06:21;28.90;99.90
5940;DHT22;2995;-31.998;115.906;2024-01-11T01:08:52;29.00;99.90
5940;DHT22;2995;-31.998;115.906;2024-01-11T01:11:23;29.10;99.90
5940;DHT22;2995;-31.998;115.906;2024-01-11T01:13:54;29.40;99.90
5940;DHT22;2995;-31.998;115.906;2024-01-11T01:16:26;29.50;99.90
5940;DHT22;2995;-31.998;115.906;2024-01-11T01:18:59;29.70;99.90
5940;DHT22;2995;-31.998;115.906;2024-01-11T01:21:30;29.60;99.90
5940;DHT22;2995;-31.998;115.906;2024-01-11T01:24:01;29.70;99.90
5940;DHT22;2995;-31.998;115.906;2024-01-11T01:26:33;29.80;99.90
5940;DHT22;2995;-31.998;115.906;2024-01-11T01:29:04;29.80;99.90
5940;DHT22;2995;-31.998;115.906;2024-01-11T01:31:35;29.80;99.90
5940;DHT22;2995;-31.998;115.906;2024-01-11T01:34:09;29.60;99.90
5940;DHT22;2995;-31.998;115.906;2024-01-11T01:36:40;29.40;99.90
5940;DHT22;2995;-31.998;115.906;2024-01-11T01:39:11;29.50;99.90
5940;DHT22;2995;-31.998;115.906;2024-01-11T01:41:43;29.50;99.90
5940;DHT22;2995;-31.998;115.906;2024-01-11T01:44:15;29.50;99.90
5940;DHT22;2995;-31.998;115.906;2024-01-11T01:46:46;29.60;99.90
5940;DHT22;2995;-31.998;115.906;2024-01-11T01:49:20;29.70;99.90
5940;DHT22;2995;-31.998;115.906;2024-01-11T01:51:52;29.80;99.90
5940;DHT22;2995;-31.998;115.906;2024-01-11T01:54:24;29.90;99.90
5940;DHT22;2995;-31.998;115.906;2024-01-11T01:56:56;29.90;99.90
5940;DHT22;2995;-31.998;115.906;2024-01-11T01:59:27;30.20;99.90
5940;DHT22;2995;-31.998;115.906;2024-01-11T02:01:59;30.40;99.90
5940;DHT22;2995;-31.998;115.906;2024-01-11T02:04:32;30.50;99.90
5940;DHT22;2995;-31.998;115.906;2024-01-11T02:07:04;30.70;99.90
5940;DHT22;2995;-31.998;115.906;2024-01-11T02:09:38;30.60;99.90
5940;DHT22;2995;-31.998;115.906;2024-01-11T02:12:10;30.70;99.90
5940;DHT22;2995;-31.998;115.906;2024-01-11T02:14:42;30.70;99.90
5940;DHT22;2995;-31.998;115.906;2024-01-11T02:17:14;30.80;99.90
5940;DHT22;2995;-31.998;115.906;2024-01-11T02:19:47;30.90;99.90
5940;DHT22;2995;-31.998;115.906;2024-01-11T02:22:22;31.10;99.90
5940;DHT22;2995;-31.998;115.906;2024-01-11T02:24:57;31.20;99.90
5940;DHT22;2995;-31.998;115.906;2024-01-11T02:27:29;31.40;99.90
5940;DHT22;2995;-31.998;115.906;2024-01-11T02:30:00;31.70;99.90
5940;DHT22;2995;-31.998;115.906;2024-01-11T02:32:31;31.70;99.90
5940;DHT22;2995;-31.998;115.906;2024-01-11T02:35:03;31.40;99.90
5940;DHT22;2995;-31.998;115.906;2024-01-11T02:37:35;31.20;99.90
5940;DHT22;2995;-31.998;115.906;2024-01-11T02:40:09;31.50;99.90
5940;DHT22;2995;-31.998;115.906;2024-01-11T02:42:41;31.70;99.90
5940;DHT22;2995;-31.998;115.906;2024-01-11T02:45:12;32.00;99.90
5940;DHT22;2995;-31.998;115.906;2024-01-11T02:47:44;32.30;99.90
5940;DHT22;2995;-31.998;115.906;2024-01-11T02:50:15;32.20;99.90
5940;DHT22;2995;-31.998;115.906;2024-01-11T02:52:46;31.90;99.90
5940;DHT22;2995;-31.998;115.906;2024-01-11T02:55:19;32.10;99.90
5940;DHT22;2995;-31.998;115.906;2024-01-11T02:57:51;32.20;99.90
5940;DHT22;2995;-31.998;115.906;2024-01-11T03:00:22;32.40;99.90
5940;DHT22;2995;-31.998;115.906;2024-01-11T03:02:53;32.70;99.90
5940;DHT22;2995;-31.998;115.906;2024-01-11T03:05:24;32.70;99.90
5940;DHT22;2995;-31.998;115.906;2024-01-11T03:07:56;32.80;99.90
5940;DHT22;2995;-31.998;115.906;2024-01-11T03:10:29;32.90;99.90
5940;DHT22;2995;-31.998;115.906;2024-01-11T03:13:00;32.90;99.90
5940;DHT22;2995;-31.998;115.906;2024-01-11T03:15:31;32.90;99.90
5940;DHT22;2995;-31.998;115.906;2024-01-11T03:18:03;32.60;99.90
5940;DHT22;2995;-31.998;115.906;2024-01-11T03:20:34;32.70;99.90
5940;DHT22;2995;-31.998;115.906;2024-01-11T03:23:05;33.10;99.90
5940;DHT22;2995;-31.998;115.906;2024-01-11T03:25:38;33.30;99.90
5940;DHT22;2995;-31.998;115.906;2024-01-11T03:28:10;33.20;99.90
5940;DHT22;2995;-31.998;115.906;2024-01-11T03:30:41;33.50;99.90
5940;DHT22;2995;-31.998;115.906;2024-01-11T03:33:12;33.60;99.90
5940;DHT22;2995;-31.998;115.906;2024-01-11T03:35:44;33.70;99.90
5940;DHT22;2995;-31.998;115.906;2024-01-11T03:38:15;33.50;99.90
5940;DHT22;2995;-31.998;115.906;2024-01-11T03:40:48;33.80;99.90
5940;DHT22;2995;-31.998;115.906;2024-01-11T03:43:20;34.10;99.90
5940;DHT22;2995;-31.998;115.906;2024-01-11T03:45:51;34.30;99.90
5940;DHT22;2995;-31.998;115.906;2024-01-11T03:48:22;34.30;99.90
5940;DHT22;2995;-31.998;115.906;2024-01-11T03:50:53;34.50;99.90
5940;DHT22;2995;-31.998;115.906;2024-01-11T03:53:24;34.40;99.90
5940;DHT22;2995;-31.998;115.906;2024-01-11T03:55:58;34.40;99.90
5940;DHT22;2995;-31.998;115.906;2024-01-11T03:58:29;34.10;99.90
5940;DHT22;2995;-31.998;115.906;2024-01-11T04:01:01;34.00;99.90
5940;DHT22;2995;-31.998;115.906;2024-01-11T04:03:32;33.80;99.90
5940;DHT22;2995;-31.998;115.906;2024-01-11T04:06:03;33.60;99.90
5940;DHT22;2995;-31.998;115.906;2024-01-11T04:08:35;33.70;99.90
5940;DHT22;2995;-31.998;115.906;2024-01-11T04:11:08;33.80;99.90
5940;DHT22;2995;-31.998;115.906;2024-01-11T04:13:40;34.00;99.90
5940;DHT22;2995;-31.998;115.906;2024-01-11T04:16:11;33.90;99.90
5940;DHT22;2995;-31.998;115.906;2024-01-11T04:18:42;33.80;99.90
5940;DHT22;2995;-31.998;115.906;2024-01-11T04:21:22;34.00;99.90
5940;DHT22;2995;-31.998;115.906;2024-01-11T04:23:56;34.00;99.90
5940;DHT22;2995;-31.998;115.906;2024-01-11T04:26:30;34.10;99.90
5940;DHT22;2995;-31.998;115.906;2024-01-11T04:29:01;34.40;99.90
5940;DHT22;2995;-31.998;115.906;2024-01-11T04:31:32;34.60;99.90
5940;DHT22;2995;-31.998;115.906;2024-01-11T04:34:03;34.40;99.90
5940;DHT22;2995;-31.998;115.906;2024-01-11T04:36:36;34.30;99.90
5940;DHT22;2995;-31.998;115.906;2024-01-11T04:39:08;34.30;99.90
5940;DHT22;2995;-31.998;115.906;2024-01-11T04:41:41;34.60;99.90
5940;DHT22;2995;-31.998;115.906;2024-01-11T04:44:12;34.70;99.90
5940;DHT22;2995;-31.998;115.906;2024-01-11T04:46:44;34.70;99.90
5940;DHT22;2995;-31.998;115.906;2024-01-11T04:49:16;34.60;99.90
5940;DHT22;2995;-31.998;115.906;2024-01-11T04:51:47;34.40;99.90
5940;DHT22;2995;-31.998;115.906;2024-01-11T04:54:18;34.40;99.90
5940;DHT22;2995;-31.998;115.906;2024-01-11T04:56:52;34.40;99.90
5940;DHT22;2995;-31.998;115.906;2024-01-11T04:59:23;34.10;99.90
5940;DHT22;2995;-31.998;115.906;2024-01-11T05:01:54;34.20;99.90
5940;DHT22;2995;-31.998;115.906;2024-01-11T05:04:25;34.40;99.90
5940;DHT22;2995;-31.998;115.906;2024-01-11T05:06:57;34.50;99.90
5940;DHT22;2995;-31.998;115.906;2024-01-11T05:09:28;34.50;99.90
5940;DHT22;2995;-31.998;115.906;2024-01-11T05:12:01;34.30;99.90
5940;DHT22;2995;-31.998;115.906;2024-01-11T05:14:32;34.30;99.90
5940;DHT22;2995;-31.998;115.906;2024-01-11T05:17:04;34.60;99.90
5940;DHT22;2995;-31.998;115.906;2024-01-11T05:19:35;34.60;99.90
5940;DHT22;2995;-31.998;115.906;2024-01-11T05:22:07;34.50;99.90
5940;DHT22;2995;-31.998;115.906;2024-01-11T05:24:38;34.50;99.90
5940;DHT22;2995;-31.998;115.906;2024-01-11T05:27:09;34.40;99.90
5940;DHT22;2995;-31.998;115.906;2024-01-11T05:29:41;34.30;99.90
5940;DHT22;2995;-31.998;115.906;2024-01-11T05:32:12;34.30;99.90
5940;DHT22;2995;-31.998;115.906;2024-01-11T05:34:43;34.50;99.90
5940;DHT22;2995;-31.998;115.906;2024-01-11T05:37:14;34.40;99.90
5940;DHT22;2995;-31.998;115.906;2024-01-11T05:39:45;34.30;99.90
5940;DHT22;2995;-31.998;115.906;2024-01-11T05:42:19;34.10;99.90
5940;DHT22;2995;-31.998;115.906;2024-01-11T05:44:51;34.10;99.90
5940;DHT22;2995;-31.998;115.906;2024-01-11T05:47:23;34.20;99.90
5940;DHT22;2995;-31.998;115.906;2024-01-11T05:49:54;34.10;99.90
5940;DHT22;2995;-31.998;115.906;2024-01-11T05:52:25;34.10;99.90
5940;DHT22;2995;-31.998;115.906;2024-01-11T05:54:56;34.10;99.90
5940;DHT22;2995;-31.998;115.906;2024-01-11T05:57:30;34.30;99.90
5940;DHT22;2995;-31.998;115.906;2024-01-11T06:00:01;34.00;99.90
5940;DHT22;2995;-31.998;115.906;2024-01-11T06:02:32;34.20;99.90
5940;DHT22;2995;-31.998;115.906;2024-01-11T06:05:04;34.00;99.90
5940;DHT22;2995;-31.998;115.906;2024-01-11T06:07:35;33.70;99.90
5940;DHT22;2995;-31.998;115.906;2024-01-11T06:10:06;34.00;99.90
5940;DHT22;2995;-31.998;115.906;2024-01-11T06:12:40;34.10;99.90
5940;DHT22;2995;-31.998;115.906;2024-01-11T06:15:15;34.30;99.90
5940;DHT22;2995;-31.998;115.906;2024-01-11T06:17:46;34.00;99.90
5940;DHT22;2995;-31.998;115.906;2024-01-11T06:20:17;33.70;99.90
5940;DHT22;2995;-31.998;115.906;2024-01-11T06:22:48;33.70;99.90
5940;DHT22;2995;-31.998;115.906;2024-01-11T06:25:20;33.40;99.90
5940;DHT22;2995;-31.998;115.906;2024-01-11T06:27:53;33.60;99.90
5940;DHT22;2995;-31.998;115.906;2024-01-11T06:30:24;33.70;99.90
5940;DHT22;2995;-31.998;115.906;2024-01-11T06:32:56;33.80;99.90
5940;DHT22;2995;-31.998;115.906;2024-01-11T06:35:27;33.50;99.90
5940;DHT22;2995;-31.998;115.906;2024-01-11T06:37:59;33.50;99.90
5940;DHT22;2995;-31.998;115.906;2024-01-11T06:40:30;33.70;99.90
5940;DHT22;2995;-31.998;115.906;2024-01-11T06:43:03;33.60;99.90
5940;DHT22;2995;-31.998;115.906;2024-01-11T06:45:35;33.80;99.90
5940;DHT22;2995;-31.998;115.906;2024-01-11T06:48:06;33.80;99.90
5940;DHT22;2995;-31.998;115.906;2024-01-11T06:50:38;33.80;99.90
5940;DHT22;2995;-31.998;115.906;2024-01-11T06:53:09;33.70;99.90
5940;DHT22;2995;-31.998;115.906;2024-01-11T06:55:40;33.60;99.90
5940;DHT22;2995;-31.998;115.906;2024-01-11T06:58:15;33.30;99.90
5940;DHT22;2995;-31.998;115.906;2024-01-11T07:00:46;33.10;99.90
5940;DHT22;2995;-31.998;115.906;2024-01-11T07:03:19;33.30;99.90
5940;DHT22;2995;-31.998;115.906;2024-01-11T07:05:50;33.20;99.90
5940;DHT22;2995;-31.998;115.906;2024-01-11T07:08:22;33.00;99.90
5940;DHT22;2995;-31.998;115.906;2024-01-11T07:10:53;32.80;99.90
5940;DHT22;2995;-31.998;115.906;2024-01-11T07:13:26;32.80;99.90
5940;DHT22;2995;-31.998;115.906;2024-01-11T07:15:58;32.70;99.90
5940;DHT22;2995;-31.998;115.906;2024-01-11T07:18:31;32.50;99.90
5940;DHT22;2995;-31.998;115.906;2024-01-11T07:21:02;32.70;99.90
5940;DHT22;2995;-31.998;115.906;2024-01-11T07:23:33;32.50;99.90
5940;DHT22;2995;-31.998;115.906;2024-01-11T07:26:05;32.40;99.90
5940;DHT22;2995;-31.998;115.906;2024-01-11T07:28:38;32.20;99.90
5940;DHT22;2995;-31.998;115.906;2024-01-11T07:31:10;32.30;99.90
5940;DHT22;2995;-31.998;115.906;2024-01-11T07:33:41;32.20;99.90
5940;DHT22;2995;-31.998;115.906;2024-01-11T07:36:13;32.00;99.90
5940;DHT22;2995;-31.998;115.906;2024-01-11T07:38:44;31.80;99.90
5940;DHT22;2995;-31.998;115.906;2024-01-11T07:41:15;32.00;99.90
5940;DHT22;2995;-31.998;115.906;2024-01-11T07:43:48;31.80;99.90
5940;DHT22;2995;-31.998;115.906;2024-01-11T07:46:20;31.60;99.90
5940;DHT22;2995;-31.998;115.906;2024-01-11T07:48:51;31.70;99.90
5940;DHT22;2995;-31.998;115.906;2024-01-11T07:51:22;31.80;99.90
5940;DHT22;2995;-31.998;115.906;2024-01-11T07:53:53;31.70;99.90
5940;DHT22;2995;-31.998;115.906;2024-01-11T07:56:24;31.40;99.90
5940;DHT22;2995;-31.998;115.906;2024-01-11T07:58:58;31.00;99.90
5940;DHT22;2995;-31.998;115.906;2024-01-11T08:01:29;31.00;99.90
5940;DHT22;2995;-31.998;115.906;2024-01-11T08:04:03;31.20;99.90
5940;DHT22;2995;-31.998;115.906;2024-01-11T08:06:34;31.00;99.90
5940;DHT22;2995;-31.998;115.906;2024-01-11T08:09:06;31.10;99.90
5940;DHT22;2995;-31.998;115.906;2024-01-11T08:11:38;31.00;99.90
5940;DHT22;2995;-31.998;115.906;2024-01-11T08:14:11;31.10;99.90
5940;DHT22;2995;-31.998;115.906;2024-01-11T08:16:43;31.00;99.90
5940;DHT22;2995;-31.998;115.906;2024-01-11T08:19:15;31.00;99.90
5940;DHT22;2995;-31.998;115.906;2024-01-11T08:21:46;30.90;99.90
5940;DHT22;2995;-31.998;115.906;2024-01-11T08:24:17;30.70;99.90
5940;DHT22;2995;-31.998;115.906;2024-01-11T08:26:48;30.70;99.90
5940;DHT22;2995;-31.998;115.906;2024-01-11T08:29:21;30.70;99.90
5940;DHT22;2995;-31.998;115.906;2024-01-11T08:31:53;30.60;99.90
5940;DHT22;2995;-31.998;115.906;2024-01-11T08:34:24;30.50;99.90
5940;DHT22;2995;-31.998;115.906;2024-01-11T08:36:56;30.30;99.90
5940;DHT22;2995;-31.998;115.906;2024-01-11T08:39:27;30.10;99.90
5940;DHT22;2995;-31.998;115.906;2024-01-11T08:41:59;30.20;99.90
5940;DHT22;2995;-31.998;115.906;2024-01-11T08:44:32;30.10;99.90
5940;DHT22;2995;-31.998;115.906;2024-01-11T08:47:04;30.00;99.90
5940;DHT22;2995;-31.998;115.906;2024-01-11T08:49:38;29.90;99.90
5940;DHT22;2995;-31.998;115.906;2024-01-11T08:52:09;30.00;99.90
5940;DHT22;2995;-31.998;115.906;2024-01-11T08:54:40;30.10;99.90
5940;DHT22;2995;-31.998;115.906;2024-01-11T08:57:11;30.10;99.90
5940;DHT22;2995;-31.998;115.906;2024-01-11T08:59:45;30.20;99.90
5940;DHT22;2995;-31.998;115.906;2024-01-11T09:02:16;30.20;99.90
5940;DHT22;2995;-31.998;115.906;2024-01-11T09:04:47;30.20;99.90
5940;DHT22;2995;-31.998;115.906;2024-01-11T09:07:18;30.10;99.90
5940;DHT22;2995;-31.998;115.906;2024-01-11T09:09:50;30.10;99.90
5940;DHT22;2995;-31.998;115.906;2024-01-11T09:12:22;30.10;99.90
5940;DHT22;2995;-31.998;115.906;2024-01-11T09:14:55;30.20;99.90
5940;DHT22;2995;-31.998;115.906;2024-01-11T09:17:26;30.10;99.90
5940;DHT22;2995;-31.998;115.906;2024-01-11T09:19:57;30.20;99.90
5940;DHT22;2995;-31.998;115.906;2024-01-11T09:22:29;30.20;99.90
5940;DHT22;2995;-31.998;115.906;2024-01-11T09:25:00;30.20;99.90
5940;DHT22;2995;-31.998;115.906;2024-01-11T09:27:31;30.10;99.90
5940;DHT22;2995;-31.998;115.906;2024-01-11T09:30:06;30.20;99.90
5940;DHT22;2995;-31.998;115.906;2024-01-11T09:32:37;30.20;99.90
5940;DHT22;2995;-31.998;115.906;2024-01-11T09:35:09;30.20;99.90
5940;DHT22;2995;-31.998;115.906;2024-01-11T09:37:40;30.10;99.90
5940;DHT22;2995;-31.998;115.906;2024-01-11T09:40:14;30.20;99.90
5940;DHT22;2995;-31.998;115.906;2024-01-11T09:42:45;30.30;99.90
5940;DHT22;2995;-31.998;115.906;2024-01-11T09:45:18;30.20;99.90
5940;DHT22;2995;-31.998;115.906;2024-01-11T09:47:50;30.20;99.90
5940;DHT22;2995;-31.998;115.906;2024-01-11T09:50:22;30.30;99.90
5940;DHT22;2995;-31.998;115.906;2024-01-11T09:52:55;30.40;99.90
5940;DHT22;2995;-31.998;115.906;2024-01-11T09:55:26;30.30;99.90
5940;DHT22;2995;-31.998;115.906;2024-01-11T09:57:58;30.30;99.90
5940;DHT22;2995;-31.998;115.906;2024-01-11T10:00:32;30.40;99.90
5940;DHT22;2995;-31.998;115.906;2024-01-11T10:03:03;30.30;99.90
5940;DHT22;2995;-31.998;115.906;2024-01-11T10:05:36;30.30;99.90
5940;DHT22;2995;-31.998;115.906;2024-01-11T10:08:08;30.40;99.90
5940;DHT22;2995;-31.998;115.906;2024-01-11T10:10:39;30.40;99.90
5940;DHT22;2995;-31.998;115.906;2024-01-11T10:13:10;30.20;99.90
5940;DHT22;2995;-31.998;115.906;2024-01-11T10:15:43;30.10;99.90
5940;DHT22;2995;-31.998;115.906;2024-01-11T10:18:15;30.00;99.90
5940;DHT22;2995;-31.998;115.906;2024-01-11T10:20:50;30.10;99.90
5940;DHT22;2995;-31.998;115.906;2024-01-11T10:23:21;30.10;99.90
5940;DHT22;2995;-31.998;115.906;2024-01-11T10:25:53;30.10;99.90
5940;DHT22;2995;-31.998;115.906;2024-01-11T10:28:25;30.10;99.90
5940;DHT22;2995;-31.998;115.906;2024-01-11T10:30:58;30.00;99.90
5940;DHT22;2995;-31.998;115.906;2024-01-11T10:33:30;30.00;99.90
5940;DHT22;2995;-31.998;115.906;2024-01-11T10:36:01;30.00;99.90
5940;DHT22;2995;-31.998;115.906;2024-01-11T10:38:35;29.90;99.90
5940;DHT22;2995;-31.998;115.906;2024-01-11T10:41:07;29.80;99.90
5940;DHT22;2995;-31.998;115.906;2024-01-11T10:43:38;29.70;99.90
5940;DHT22;2995;-31.998;115.906;2024-01-11T10:46:14;29.60;99.90
5940;DHT22;2995;-31.998;115.906;2024-01-11T10:48:48;29.70;99.90
5940;DHT22;2995;-31.998;115.906;2024-01-11T10:51:24;29.60;99.90
5940;DHT22;2995;-31.998;115.906;2024-01-11T10:53:57;29.40;99.90
5940;DHT22;2995;-31.998;115.906;2024-01-11T10:56:28;29.40;99.90
5940;DHT22;2995;-31.998;115.906;2024-01-11T10:59:01;29.40;99.90
5940;DHT22;2995;-31.998;115.906;2024-01-11T11:01:35;29.30;99.90
5940;DHT22;2995;-31.998;115.906;2024-01-11T11:04:06;29.20;99.90
5940;DHT22;2995;-31.998;115.906;2024-01-11T11:06:38;29.20;99.90
5940;DHT22;2995;-31.998;115.906;2024-01-11T11:09:11;29.20;99.90
5940;DHT22;2995;-31.998;115.906;2024-01-11T11:11:46;29.20;99.90
5940;DHT22;2995;-31.998;115.906;2024-01-11T11:14:17;29.00;99.90
5940;DHT22;2995;-31.998;115.906;2024-01-11T11:16:52;28.90;99.90
5940;DHT22;2995;-31.998;115.906;2024-01-11T11:19:24;28.90;99.90
5940;DHT22;2995;-31.998;115.906;2024-01-11T11:21:55;28.70;99.90
5940;DHT22;2995;-31.998;115.906;2024-01-11T11:24:27;28.60;99.90
5940;DHT22;2995;-31.998;115.906;2024-01-11T11:26:58;28.70;99.90
5940;DHT22;2995;-31.998;115.906;2024-01-11T11:29:29;28.50;99.90
5940;DHT22;2995;-31.998;115.906;2024-01-11T11:32:04;28.40;99.90
5940;DHT22;2995;-31.998;115.906;2024-01-11T11:34:44;28.40;99.90
5940;DHT22;2995;-31.998;115.906;2024-01-11T11:37:23;28.40;99.90
5940;DHT22;2995;-31.998;115.906;2024-01-11T11:39:55;28.50;99.90
5940;DHT22;2995;-31.998;115.906;2024-01-11T11:42:26;28.40;99.90
5940;DHT22;2995;-31.998;115.906;2024-01-11T11:44:57;28.30;99.90
5940;DHT22;2995;-31.998;115.906;2024-01-11T11:47:36;28.10;99.90
5940;DHT22;2995;-31.998;115.906;2024-01-11T11:50:09;28.00;99.90
5940;DHT22;2995;-31.998;115.906;2024-01-11T11:52:42;28.00;99.90
5940;DHT22;2995;-31.998;115.906;2024-01-11T11:55:13;27.80;99.90
5940;DHT22;2995;-31.998;115.906;2024-01-11T11:57:45;27.70;99.90
5940;DHT22;2995;-31.998;115.906;2024-01-11T12:00:17;27.60;99.90
5940;DHT22;2995;-31.998;115.906;2024-01-11T12:02:57;27.40;99.90
5940;DHT22;2995;-31.998;115.906;2024-01-11T12:05:29;27.30;99.90
5940;DHT22;2995;-31.998;115.906;2024-01-11T12:08:00;27.30;99.90
5940;DHT22;2995;-31.998;115.906;2024-01-11T12:10:31;27.30;99.90
5940;DHT22;2995;-31.998;115.906;2024-01-11T12:13:03;27.10;99.90
5940;DHT22;2995;-31.998;115.906;2024-01-11T12:15:34;27.40;99.90
5940;DHT22;2995;-31.998;115.906;2024-01-11T12:18:08;27.20;99.90
5940;DHT22;2995;-31.998;115.906;2024-01-11T12:20:39;27.10;99.90
5940;DHT22;2995;-31.998;115.906;2024-01-11T12:23:10;27.10;99.90
5940;DHT22;2995;-31.998;115.906;2024-01-11T12:25:42;27.10;99.90
5940;DHT22;2995;-31.998;115.906;2024-01-11T12:28:14;27.20;99.90
5940;DHT22;2995;-31.998;115.906;2024-01-11T12:30:46;27.10;99.90
5940;DHT22;2995;-31.998;115.906;2024-01-11T12:33:19;26.90;99.90
5940;DHT22;2995;-31.998;115.906;2024-01-11T12:35:51;26.90;99.90
5940;DHT22;2995;-31.998;115.906;2024-01-11T12:38:22;26.90;99.90
5940;DHT22;2995;-31.998;115.906;2024-01-11T12:40:54;26.90;99.90
5940;DHT22;2995;-31.998;115.906;2024-01-11T12:43:25;27.10;99.90
5940;DHT22;2995;-31.998;115.906;2024-01-11T12:45:56;26.90;99.90
5940;DHT22;2995;-31.998;115.906;2024-01-11T12:48:30;26.80;99.90
5940;DHT22;2995;-31.998;115.906;2024-01-11T12:51:01;26.60;99.90
5940;DHT22;2995;-31.998;115.906;2024-01-11T12:53:32;26.60;99.90
5940;DHT22;2995;-31.998;115.906;2024-01-11T12:56:04;26.70;99.90
5940;DHT22;2995;-31.998;115.906;2024-01-11T12:58:38;27.00;99.90
5940;DHT22;2995;-31.998;115.906;2024-01-11T13:01:09;27.20;99.90
5940;DHT22;2995;-31.998;115.906;2024-01-11T13:03:46;27.20;99.90
5940;DHT22;2995;-31.998;115.906;2024-01-11T13:06:18;26.90;99.90
5940;DHT22;2995;-31.998;115.906;2024-01-11T13:08:50;27.00;99.90
5940;DHT22;2995;-31.998;115.906;2024-01-11T13:11:22;27.20;99.90
5940;DHT22;2995;-31.998;115.906;2024-01-11T13:13:53;26.90;99.90
5940;DHT22;2995;-31.998;115.906;2024-01-11T13:16:26;26.90;99.90
5940;DHT22;2995;-31.998;115.906;2024-01-11T13:18:59;26.80;99.90
5940;DHT22;2995;-31.998;115.906;2024-01-11T13:21:31;26.90;99.90
5940;DHT22;2995;-31.998;115.906;2024-01-11T13:24:02;27.30;99.90
5940;DHT22;2995;-31.998;115.906;2024-01-11T13:26:33;27.40;99.90
5940;DHT22;2995;-31.998;115.906;2024-01-11T13:29:04;27.60;99.90
5940;DHT22;2995;-31.998;115.906;2024-01-11T13:31:36;27.30;99.90
5940;DHT22;2995;-31.998;115.906;2024-01-11T13:34:09;27.30;99.90
5940;DHT22;2995;-31.998;115.906;2024-01-11T13:36:40;27.50;99.90
5940;DHT22;2995;-31.998;115.906;2024-01-11T13:39:11;27.30;99.90
5940;DHT22;2995;-31.998;115.906;2024-01-11T13:41:46;27.20;99.90
5940;DHT22;2995;-31.998;115.906;2024-01-11T13:44:17;27.20;99.90
5940;DHT22;2995;-31.998;115.906;2024-01-11T13:46:48;27.30;99.90
5940;DHT22;2995;-31.998;115.906;2024-01-11T13:49:21;27.40;99.90
5940;DHT22;2995;-31.998;115.906;2024-01-11T13:51:53;27.20;99.90
5940;DHT22;2995;-31.998;115.906;2024-01-11T13:54:24;27.10;99.90
5940;DHT22;2995;-31.998;115.906;2024-01-11T13:56:55;27.20;99.90
5940;DHT22;2995;-31.998;115.906;2024-01-11T13:59:26;27.20;99.90
5940;DHT22;2995;-31.998;115.906;2024-01-11T14:01:58;27.00;99.90
5940;DHT22;2995;-31.998;115.906;2024-01-11T14:04:32;27.10;99.90
5940;DHT22;2995;-31.998;115.906;2024-01-11T14:07:03;27.10;99.90
5940;DHT22;2995;-31.998;115.906;2024-01-11T14:09:34;27.10;99.90
5940;DHT22;2995;-31.998;115.906;2024-01-11T14:12:06;27.10;99.90
5940;DHT22;2995;-31.998;115.906;2024-01-11T14:14:38;26.90;99.90
5940;DHT22;2995;-31.998;115.906;2024-01-11T14:17:09;26.90;99.90
5940;DHT22;2995;-31.998;115.906;2024-01-11T14:19:42;26.70;99.90
5940;DHT22;2995;-31.998;115.906;2024-01-11T14:22:14;26.60;99.90
5940;DHT22;2995;-31.998;115.906;2024-01-11T14:24:45;26.50;99.90
5940;DHT22;2995;-31.998;115.906;2024-01-11T14:27:16;26.50;99.90
5940;DHT22;2995;-31.998;115.906;2024-01-11T14:29:48;26.60;99.90
5940;DHT22;2995;-31.998;115.906;2024-01-11T14:32:19;26.60;99.90
5940;DHT22;2995;-31.998;115.906;2024-01-11T14:34:52;26.70;99.90
5940;DHT22;2995;-31.998;115.906;2024-01-11T14:37:24;26.80;99.90
5940;DHT22;2995;-31.998;115.906;2024-01-11T14:39:56;26.80;99.90
5940;DHT22;2995;-31.998;115.906;2024-01-11T14:42:27;26.70;99.90
5940;DHT22;2995;-31.998;115.906;2024-01-11T14:44:59;26.80;99.90
5940;DHT22;2995;-31.998;115.906;2024-01-11T14:47:31;27.00;99.90
5940;DHT22;2995;-31.998;115.906;2024-01-11T14:50:05;26.90;99.90
5940;DHT22;2995;-31.998;115.906;2024-01-11T14:52:39;26.90;99.90
5940;DHT22;2995;-31.998;115.906;2024-01-11T14:55:10;26.90;99.90
5940;DHT22;2995;-31.998;115.906;2024-01-11T14:57:42;26.80;99.90
5940;DHT22;2995;-31.998;115.906;2024-01-11T15:00:14;26.90;99.90
5940;DHT22;2995;-31.998;115.906;2024-01-11T15:02:45;26.80;99.90
5940;DHT22;2995;-31.998;115.906;2024-01-11T15:05:19;26.80;99.90
5940;DHT22;2995;-31.998;115.906;2024-01-11T15:07:50;26.70;99.90
5940;DHT22;2995;-31.998;115.906;2024-01-11T15:10:23;26.70;99.90
5940;DHT22;2995;-31.998;115.906;2024-01-11T15:12:54;26.60;99.90
5940;DHT22;2995;-31.998;115.906;2024-01-11T15:15:26;26.70;99.90
5940;DHT22;2995;-31.998;115.906;2024-01-11T15:17:57;26.80;99.90
5940;DHT22;2995;-31.998;115.906;2024-01-11T15:20:30;26.50;99.90
5940;DHT22;2995;-31.998;115.906;2024-01-11T15:23:01;26.40;99.90
5940;DHT22;2995;-31.998;115.906;2024-01-11T15:25:33;26.40;99.90
5940;DHT22;2995;-31.998;115.906;2024-01-11T15:28:04;26.30;99.90
5940;DHT22;2995;-31.998;115.906;2024-01-11T15:30:36;26.40;99.90
5940;DHT22;2995;-31.998;115.906;2024-01-11T15:33:07;26.10;99.90
5940;DHT22;2995;-31.998;115.906;2024-01-11T15:35:40;26.00;99.90
5940;DHT22;2995;-31.998;115.906;2024-01-11T15:38:11;26.00;99.90
5940;DHT22;2995;-31.998;115.906;2024-01-11T15:40:42;26.00;99.90
5940;DHT22;2995;-31.998;115.906;2024-01-11T15:43:14;25.90;99.90